首页
METAR-TAF:

METAR-TAF

机场 :

奧克蘭都會區, 新西兰

奧克蘭機場

纬度: 37-01S, 经度: 174-48E, 海拔: 7米

当前天气观测

该预报发布于46分钟前的12:30 UTC
风速22节,风向北转东北
温度 20°C
湿度 88%
气压 1016 hPa
能见度10公里或以上
小雨

METAR: NZAA 171230Z AUTO 03022KT 9999 -RA SCT023/// SCT100/// 20/18 Q1016 TEMPO 6000 SHRA

时间: 02:16 (13:16 UTC)

预报

该预报发布于1小时和43分钟前的11:33 UTC
预报有效从17日的 12点(UTC)到 18日的 12点(UTC)
风速20节,风向东北,有时为30节阵风
能见度10公里或以上
散云层高于2000英尺
多云层高于3000英尺
小雨
短暂存在
从 17日的 12点(UTC)到 17日的 15点(UTC)
能見度: 6000
短暂存在
从 17日的 15点(UTC)到 18日的 12点(UTC)
能見度: 4000
多云层高于1200英尺
少量云层高于2000英尺, 塔状积云.
几率 30% :
短暂存在
从 17日的 15点(UTC)到 18日的 09点(UTC)
能見度: 2500
多云层高于800英尺
少量云层高于2000英尺, 积雨云.
大雨

TAF: NZAA 171133Z 1712/1812 04020G30KT 9999 -RA SCT020 BKN030 TEMPO 1712/1715 6000 RA TEMPO 1715/1812 4000 RA BKN012 FEW020TCU PROB30 TEMPO 1715/1809 2500 +RA BKN008 FEW020CB

超过4000个机场的气象观测和天气预报(METAR&TAF报告)。

可查询的气象台以黄色和红色小点在地图上表示。

将鼠标移到小点上方,可查看气象台名称。

然后点击查看天气观测和预报。

如需切换地图:点击带黑十字的绿色按钮放大地图;点击带横线的绿色按钮缩小地图;或者点击绿色箭头查看邻近地区的地图。


METAR-TAF: